Time;durP1;ratioP1;P1;durP2;ratioP2;P2;SDS_P1;SDS_P2;PMS_P1;PMS_P2;Temp;Humidity;BMP_temperature;BMP_pressure;BME280_temperature;BME280_humidity;BME280_pressure;Samples;Min_cycle;Max_cycle;Signal;HPM_P1;HPM_P2
2023/06/14 00:01:45;;;;;;;3.25;1.73;;;14.80;63.20;;;;;;5043297;28;20531;-70
2023/06/14 00:04:12;;;;;;;4.65;1.77;;;14.70;65.70;;;;;;5043737;28;20059;-70
2023/06/14 00:06:38;;;;;;;5.30;2.08;;;14.70;68.00;;;;;;5046954;28;20112;-70
2023/06/14 00:09:04;;;;;;;5.45;2.38;;;14.70;70.10;;;;;;5051221;28;20111;-70
2023/06/14 00:11:31;;;;;;;5.68;2.10;;;14.60;68.30;;;;;;5048344;28;20025;-70
2023/06/14 00:13:57;;;;;;;5.45;1.88;;;14.50;67.60;;;;;;5051319;28;20040;-70
2023/06/14 00:16:23;;;;;;;5.65;1.85;;;14.40;68.60;;;;;;5049500;28;20025;-70
2023/06/14 00:18:48;;;;;;;3.97;2.08;;;14.40;68.90;;;;;;5029667;28;20033;-70
2023/06/14 00:21:14;;;;;;;6.85;2.10;;;14.40;62.50;;;;;;5048876;28;20044;-71
2023/06/14 00:23:40;;;;;;;3.33;1.50;;;14.40;66.70;;;;;;5046254;28;20070;-71
2023/06/14 00:26:05;;;;;;;2.88;1.60;;;14.40;67.40;;;;;;5046436;28;20039;-71
2023/06/14 00:28:31;;;;;;;2.78;1.65;;;14.40;66.40;;;;;;5049518;28;20040;-71
2023/06/14 00:30:57;;;;;;;4.95;1.77;;;14.40;67.60;;;;;;5050830;28;20127;-71
2023/06/14 00:33:22;;;;;;;3.33;1.58;;;14.30;67.00;;;;;;5055899;28;20381;-71
2023/06/14 00:35:48;;;;;;;5.38;1.80;;;14.30;69.10;;;;;;5049914;28;20036;-72
2023/06/14 00:38:13;;;;;;;3.50;1.83;;;14.20;69.20;;;;;;5047880;28;20028;-71
2023/06/14 00:40:39;;;;;;;5.28;1.98;;;14.20;70.40;;;;;;5047553;28;20101;-71
2023/06/14 00:43:05;;;;;;;4.35;2.10;;;14.20;69.50;;;;;;5050199;28;20031;-71
2023/06/14 00:45:35;;;;;;;4.57;2.03;;;14.10;69.20;;;;;;5059126;28;20032;-71
2023/06/14 00:48:02;;;;;;;3.67;1.90;;;14.00;68.20;;;;;;5042882;28;20032;-71
2023/06/14 00:50:29;;;;;;;4.82;2.08;;;14.00;69.10;;;;;;5046444;28;20068;-71
2023/06/14 00:52:56;;;;;;;4.20;1.80;;;14.00;67.60;;;;;;5051322;28;20484;-71
2023/06/14 00:55:21;;;;;;;4.13;2.30;;;13.90;68.70;;;;;;5046509;28;20120;-71
2023/06/14 00:57:47;;;;;;;4.00;1.70;;;13.90;69.50;;;;;;5033140;28;20609;-71
2023/06/14 01:00:14;;;;;;;4.30;1.95;;;13.90;69.90;;;;;;5040347;28;20033;-71
2023/06/14 01:02:40;;;;;;;4.93;1.80;;;13.80;69.40;;;;;;5044338;28;20499;-71
2023/06/14 01:05:07;;;;;;;3.55;1.88;;;13.80;72.20;;;;;;5047524;28;20028;-71
2023/06/14 01:07:58;;;;;;;6.57;1.80;;;13.80;71.50;;;;;;5045517;28;20037;-71
2023/06/14 01:10:52;;;;;;;4.38;1.70;;;13.80;72.20;;;;;;5052333;28;20342;-71
2023/06/14 01:13:21;;;;;;;4.30;1.60;;;13.70;72.80;;;;;;5047239;28;20388;-71
2023/06/14 01:15:47;;;;;;;5.13;1.85;;;13.70;75.00;;;;;;5050764;28;20695;-71
2023/06/14 01:18:19;;;;;;;3.38;1.90;;;13.70;74.00;;;;;;5046851;28;20024;-71
2023/06/14 01:20:49;;;;;;;5.60;1.77;;;13.60;78.60;;;;;;5050614;28;20040;-71
2023/06/14 01:23:17;;;;;;;5.38;1.80;;;13.50;79.70;;;;;;5048106;28;20571;-71
2023/06/14 01:25:44;;;;;;;4.43;2.05;;;13.40;78.80;;;;;;5054639;28;20043;-71
2023/06/14 01:28:12;;;;;;;3.53;1.77;;;13.40;80.10;;;;;;5057560;28;20130;-72
2023/06/14 01:30:42;;;;;;;3.85;1.77;;;13.30;81.00;;;;;;5055072;28;20586;-71
2023/06/14 01:33:08;;;;;;;3.45;1.75;;;13.20;80.40;;;;;;5044927;28;20056;-71
2023/06/14 01:35:34;;;;;;;4.20;1.88;;;13.10;78.60;;;;;;5044410;28;20146;-71
2023/06/14 01:38:01;;;;;;;3.47;1.67;;;13.00;78.00;;;;;;5039565;28;20028;-71
2023/06/14 01:40:28;;;;;;;5.40;1.98;;;13.00;77.00;;;;;;5046606;28;20043;-71
2023/06/14 01:42:53;;;;;;;5.97;1.77;;;13.00;81.20;;;;;;5036917;28;20064;-71
2023/06/14 01:45:20;;;;;;;4.78;1.80;;;13.00;81.90;;;;;;5034680;28;20119;-71
2023/06/14 01:47:46;;;;;;;3.95;1.67;;;13.00;84.10;;;;;;5055523;28;20275;-71
2023/06/14 01:50:13;;;;;;;5.97;1.90;;;13.00;82.90;;;;;;5042793;28;20055;-71
2023/06/14 01:52:39;;;;;;;4.53;1.70;;;13.00;81.90;;;;;;5045250;28;20029;-71
2023/06/14 01:55:05;;;;;;;5.82;2.13;;;13.00;84.50;;;;;;5025653;28;20407;-71
2023/06/14 01:57:31;;;;;;;3.33;1.88;;;13.00;82.60;;;;;;5039516;28;20462;-71
2023/06/14 01:59:57;;;;;;;4.82;2.20;;;13.10;84.80;;;;;;5040925;28;20129;-71
2023/06/14 02:02:23;;;;;;;5.03;2.25;;;13.10;86.80;;;;;;5042869;28;20043;-71
2023/06/14 02:04:48;;;;;;;4.13;2.00;;;13.00;87.40;;;;;;5053779;28;20090;-71
2023/06/14 02:07:14;;;;;;;3.10;2.03;;;13.00;87.50;;;;;;5051774;28;20113;-71
2023/06/14 02:09:41;;;;;;;4.85;2.20;;;13.00;85.50;;;;;;5040873;28;20042;-71
2023/06/14 02:12:07;;;;;;;2.50;2.00;;;12.90;84.30;;;;;;5049307;28;20025;-71
2023/06/14 02:14:33;;;;;;;4.25;2.20;;;12.80;84.30;;;;;;5048625;28;20143;-71
2023/06/14 02:17:00;;;;;;;5.25;2.42;;;12.70;86.40;;;;;;5046566;28;20404;-71
2023/06/14 02:19:26;;;;;;;3.97;1.90;;;12.70;85.00;;;;;;5049263;28;20021;-72
2023/06/14 02:21:52;;;;;;;5.25;2.20;;;12.70;86.30;;;;;;5043817;28;20036;-71
2023/06/14 02:24:17;;;;;;;6.70;2.28;;;12.70;87.80;;;;;;5034536;28;20507;-71
2023/06/14 02:26:43;;;;;;;5.63;2.42;;;12.70;87.10;;;;;;5051820;28;20042;-71
2023/06/14 02:29:10;;;;;;;5.75;2.20;;;12.70;87.90;;;;;;5043709;28;20028;-71
2023/06/14 02:31:38;;;;;;;3.75;2.13;;;12.70;89.30;;;;;;5041563;28;20028;-71
2023/06/14 02:34:03;;;;;;;6.10;2.45;;;12.70;89.80;;;;;;5055961;28;20531;-71
2023/06/14 02:36:31;;;;;;;3.90;1.95;;;12.60;90.30;;;;;;5036922;28;20029;-71
2023/06/14 02:38:57;;;;;;;4.55;2.22;;;12.60;91.20;;;;;;5026759;28;20491;-71
2023/06/14 02:41:26;;;;;;;4.43;2.20;;;12.50;92.20;;;;;;5052558;28;20037;-71
2023/06/14 02:43:52;;;;;;;7.00;2.25;;;12.50;92.50;;;;;;5048979;28;20031;-71
2023/06/14 02:46:18;;;;;;;6.45;2.05;;;12.40;93.00;;;;;;5047849;28;20046;-71
2023/06/14 02:48:44;;;;;;;5.63;2.35;;;12.40;93.10;;;;;;5049702;28;20033;-71
2023/06/14 02:51:09;;;;;;;4.32;2.10;;;12.40;93.00;;;;;;5045268;28;20155;-71
2023/06/14 02:53:36;;;;;;;5.35;2.40;;;12.40;93.00;;;;;;5046710;28;20544;-70
2023/06/14 02:56:03;;;;;;;5.60;2.20;;;12.30;93.60;;;;;;5046168;28;20115;-71
2023/06/14 02:58:29;;;;;;;3.55;2.00;;;12.30;94.20;;;;;;5045779;28;20094;-71
2023/06/14 03:00:55;;;;;;;5.05;2.20;;;12.30;93.80;;;;;;5043454;28;20193;-71
2023/06/14 03:03:24;;;;;;;4.65;2.38;;;12.20;93.60;;;;;;5043174;28;20647;-72
2023/06/14 03:05:51;;;;;;;5.03;2.10;;;12.20;93.30;;;;;;5048549;28;20180;-71
2023/06/14 03:08:18;;;;;;;4.55;2.63;;;12.10;93.90;;;;;;5047745;28;20021;-71
2023/06/14 03:10:46;;;;;;;3.53;2.13;;;12.10;93.90;;;;;;5048696;28;20135;-72
2023/06/14 03:13:12;;;;;;;5.30;2.58;;;12.10;94.20;;;;;;5048397;28;20029;-71
2023/06/14 03:15:38;;;;;;;6.25;2.20;;;12.00;94.40;;;;;;5048184;28;20131;-71
2023/06/14 03:18:04;;;;;;;5.10;2.30;;;12.00;95.40;;;;;;5046716;28;20036;-71
2023/06/14 03:20:32;;;;;;;8.35;2.47;;;12.10;95.00;;;;;;5053628;28;20307;-71
2023/06/14 03:23:02;;;;;;;4.53;2.30;;;12.10;94.90;;;;;;5048487;28;20032;-71
2023/06/14 03:25:29;;;;;;;5.65;2.28;;;12.00;94.60;;;;;;5045299;28;20086;-71
2023/06/14 03:27:58;;;;;;;5.97;2.30;;;12.00;94.60;;;;;;5051716;28;20048;-70
2023/06/14 03:30:23;;;;;;;5.57;2.30;;;12.00;94.90;;;;;;5051344;28;20431;-71
2023/06/14 03:32:51;;;;;;;6.15;2.47;;;12.00;95.60;;;;;;5050223;28;20035;-71
2023/06/14 03:35:17;;;;;;;7.32;2.83;;;12.00;95.10;;;;;;5050854;28;20028;-71
2023/06/14 03:37:46;;;;;;;4.28;2.25;;;11.90;96.30;;;;;;5046905;28;20123;-71
2023/06/14 03:40:13;;;;;;;4.85;2.70;;;11.90;96.90;;;;;;5047975;28;20345;-71
2023/06/14 03:42:40;;;;;;;5.55;2.45;;;11.90;96.40;;;;;;5046273;28;20388;-71
2023/06/14 03:45:08;;;;;;;4.70;2.42;;;11.80;96.20;;;;;;5033760;28;20028;-71
2023/06/14 03:47:34;;;;;;;4.93;2.22;;;11.80;96.50;;;;;;5043268;28;20495;-70
2023/06/14 03:50:01;;;;;;;3.95;2.10;;;11.70;96.00;;;;;;5044232;28;20097;-70
2023/06/14 03:52:26;;;;;;;4.85;2.33;;;11.70;96.30;;;;;;5041214;28;20516;-70
2023/06/14 03:54:52;;;;;;;4.50;2.33;;;11.70;96.50;;;;;;5045704;28;20094;-70
2023/06/14 03:57:19;;;;;;;4.65;2.42;;;11.70;96.70;;;;;;5041971;28;20041;-70
2023/06/14 03:59:45;;;;;;;5.38;2.50;;;11.70;96.80;;;;;;5025965;28;20436;-70
2023/06/14 04:02:11;;;;;;;4.82;2.40;;;11.70;97.50;;;;;;5034390;28;20078;-70
2023/06/14 04:04:37;;;;;;;5.28;2.20;;;11.70;98.00;;;;;;5047874;28;20428;-70
2023/06/14 04:07:03;;;;;;;7.63;2.63;;;11.70;98.20;;;;;;5034628;28;20132;-70
2023/06/14 04:09:29;;;;;;;5.95;2.58;;;11.70;97.80;;;;;;5046451;28;20024;-71
2023/06/14 04:11:55;;;;;;;4.43;2.50;;;11.70;98.00;;;;;;5031704;28;20021;-71
2023/06/14 04:14:21;;;;;;;3.92;2.35;;;11.70;98.20;;;;;;5043698;28;20344;-71
2023/06/14 04:16:48;;;;;;;5.15;2.42;;;11.70;98.40;;;;;;5043464;28;20523;-70
2023/06/14 04:19:14;;;;;;;4.50;2.40;;;11.70;98.70;;;;;;5046032;28;20041;-70
2023/06/14 04:21:40;;;;;;;5.40;2.15;;;11.70;99.20;;;;;;5054627;28;20045;-70
2023/06/14 04:24:06;;;;;;;3.92;2.25;;;11.80;99.40;;;;;;5041780;28;20124;-70
2023/06/14 04:26:33;;;;;;;3.50;2.15;;;11.80;99.70;;;;;;5047600;28;20441;-71
2023/06/14 04:29:02;;;;;;;6.85;2.67;;;11.80;99.90;;;;;;5035249;28;20405;-71
2023/06/14 04:31:33;;;;;;;4.65;2.45;;;11.80;99.90;;;;;;5033807;28;20178;-70
2023/06/14 04:33:59;;;;;;;5.63;2.40;;;11.80;99.90;;;;;;5040015;28;20506;-70
2023/06/14 04:36:27;;;;;;;5.40;2.38;;;11.80;99.90;;;;;;5044274;28;20633;-71
2023/06/14 04:38:54;;;;;;;5.25;2.42;;;11.80;99.90;;;;;;5042056;28;20476;-70
2023/06/14 04:41:22;;;;;;;4.35;2.13;;;11.90;99.90;;;;;;5047368;28;20040;-71
2023/06/14 04:43:49;;;;;;;4.38;2.67;;;11.90;99.90;;;;;;5047308;28;20064;-71
2023/06/14 04:46:17;;;;;;;4.40;3.00;;;12.00;99.90;;;;;;5050860;28;20024;-70
2023/06/14 04:48:42;;;;;;;6.10;2.55;;;12.00;99.90;;;;;;5049657;28;20024;-70
2023/06/14 04:51:09;;;;;;;5.75;2.75;;;12.00;99.90;;;;;;5042269;28;20028;-71
2023/06/14 04:53:35;;;;;;;4.40;2.58;;;12.10;99.90;;;;;;5032019;28;20384;-70
2023/06/14 04:56:01;;;;;;;4.15;2.22;;;12.10;99.90;;;;;;5050154;28;20036;-70
2023/06/14 04:58:28;;;;;;;6.25;2.70;;;12.20;99.90;;;;;;5049665;28;21189;-70
2023/06/14 05:00:56;;;;;;;5.05;2.53;;;12.30;99.90;;;;;;5051348;28;20562;-71
2023/06/14 05:03:23;;;;;;;7.43;2.33;;;12.30;99.90;;;;;;5044727;28;20066;-71
2023/06/14 05:05:50;;;;;;;5.43;2.42;;;12.40;99.90;;;;;;5044605;28;20488;-71
2023/06/14 05:08:16;;;;;;;5.40;2.67;;;12.40;99.90;;;;;;5029243;28;20070;-71
2023/06/14 05:10:42;;;;;;;4.32;2.30;;;12.50;99.90;;;;;;5040596;28;20032;-70
2023/06/14 05:13:07;;;;;;;8.02;2.47;;;12.60;99.90;;;;;;5053672;28;20033;-70
2023/06/14 05:15:33;;;;;;;5.18;2.40;;;12.70;99.90;;;;;;5046360;28;20274;-71
2023/06/14 05:17:59;;;;;;;6.60;2.40;;;12.80;99.90;;;;;;5052687;28;20020;-70
2023/06/14 05:20:26;;;;;;;4.97;2.40;;;12.90;99.90;;;;;;5052914;28;20141;-71
2023/06/14 05:22:53;;;;;;;6.00;2.70;;;13.00;99.90;;;;;;5030854;28;20032;-71
2023/06/14 05:25:20;;;;;;;5.53;3.00;;;13.10;99.90;;;;;;5047849;28;20446;-71
2023/06/14 05:27:46;;;;;;;6.78;2.47;;;13.20;99.90;;;;;;5055097;28;20340;-71
2023/06/14 05:30:13;;;;;;;6.28;2.70;;;13.30;99.90;;;;;;5036652;28;20025;-70
2023/06/14 05:32:39;;;;;;;8.13;2.40;;;13.40;99.90;;;;;;5053802;28;20090;-71
2023/06/14 05:35:05;;;;;;;6.40;2.40;;;13.40;99.90;;;;;;5050693;28;20070;-71
2023/06/14 05:37:31;;;;;;;3.72;2.17;;;13.60;99.90;;;;;;5050889;28;20037;-71
2023/06/14 05:39:57;;;;;;;6.78;2.92;;;13.70;99.90;;;;;;5046699;28;20020;-70
2023/06/14 05:42:23;;;;;;;7.45;3.55;;;13.80;99.90;;;;;;5051373;28;20419;-71
2023/06/14 05:44:48;;;;;;;7.15;2.80;;;13.90;99.90;;;;;;5048927;28;20118;-72
2023/06/14 05:47:14;;;;;;;9.65;2.95;;;13.90;99.90;;;;;;5053459;28;20058;-71
2023/06/14 05:49:40;;;;;;;5.78;2.72;;;14.10;99.90;;;;;;5053431;28;20654;-72
2023/06/14 05:52:06;;;;;;;7.55;2.63;;;14.20;99.90;;;;;;5045747;28;20923;-72
2023/06/14 05:54:32;;;;;;;6.07;3.10;;;14.30;99.90;;;;;;5049765;28;20029;-71
2023/06/14 05:57:01;;;;;;;8.23;3.13;;;14.40;99.90;;;;;;5049075;28;20091;-72
2023/06/14 05:59:29;;;;;;;5.50;2.50;;;14.50;99.90;;;;;;5047080;28;20575;-72
2023/06/14 06:01:55;;;;;;;6.55;2.63;;;14.70;99.90;;;;;;5049944;28;20037;-71
2023/06/14 06:04:21;;;;;;;9.52;2.70;;;14.80;99.90;;;;;;5040959;28;20416;-72
2023/06/14 06:06:47;;;;;;;7.53;3.42;;;14.90;99.90;;;;;;5051489;28;20040;-72
2023/06/14 06:09:14;;;;;;;8.57;3.17;;;15.00;99.90;;;;;;5047455;28;20578;-72
2023/06/14 06:11:40;;;;;;;11.95;3.45;;;15.00;99.90;;;;;;5053566;28;20036;-73
2023/06/14 06:14:06;;;;;;;7.32;3.15;;;15.10;99.90;;;;;;5054558;28;20031;-72
2023/06/14 06:16:32;;;;;;;12.07;3.70;;;15.20;99.90;;;;;;5048868;28;20024;-72
2023/06/14 06:18:57;;;;;;;8.70;2.97;;;15.30;99.90;;;;;;5055388;28;20028;-68
2023/06/14 06:21:23;;;;;;;5.32;2.97;;;15.50;99.90;;;;;;5042503;28;20063;-68
2023/06/14 06:23:49;;;;;;;10.45;2.83;;;15.60;99.90;;;;;;5053746;28;20529;-69
2023/06/14 06:26:15;;;;;;;57.22;27.98;;;15.70;99.90;;;;;;5050021;28;20032;-68
2023/06/14 06:28:40;;;;;;;12.73;5.43;;;15.80;99.90;;;;;;5046538;28;20072;-68
2023/06/14 06:31:06;;;;;;;17.17;5.57;;;16.00;99.90;;;;;;5047327;28;20025;-68
2023/06/14 06:33:32;;;;;;;10.25;3.60;;;16.10;99.90;;;;;;5040992;28;20113;-68
2023/06/14 06:35:57;;;;;;;9.43;3.13;;;16.10;99.90;;;;;;5025115;28;20170;-68
2023/06/14 06:38:23;;;;;;;6.25;3.10;;;16.30;99.90;;;;;;5038392;28;20025;-69
2023/06/14 06:40:48;;;;;;;32.85;18.25;;;16.40;99.90;;;;;;5041281;28;20117;-68
2023/06/14 06:43:16;;;;;;;20.70;11.70;;;16.50;99.90;;;;;;5044741;28;20032;-69
2023/06/14 06:45:42;;;;;;;12.23;4.78;;;16.60;99.90;;;;;;5041932;28;20081;-68
2023/06/14 06:48:10;;;;;;;13.35;3.78;;;16.70;99.90;;;;;;5052217;28;20032;-68
2023/06/14 06:50:35;;;;;;;9.77;4.05;;;16.80;99.90;;;;;;5047101;28;20841;-68
2023/06/14 06:53:01;;;;;;;6.72;3.35;;;16.80;99.90;;;;;;5046822;28;20028;-68
2023/06/14 06:55:27;;;;;;;45.92;26.13;;;16.80;99.90;;;;;;5040507;28;20032;-68
2023/06/14 06:57:53;;;;;;;30.05;14.65;;;16.80;99.90;;;;;;5049513;28;20514;-68
2023/06/14 07:00:20;;;;;;;11.05;3.67;;;16.90;99.90;;;;;;5058291;28;20031;-68
2023/06/14 07:02:45;;;;;;;10.32;3.70;;;17.00;99.90;;;;;;5053938;28;20124;-68
2023/06/14 07:05:11;;;;;;;7.03;3.28;;;17.20;99.50;;;;;;5053477;28;20099;-68
2023/06/14 07:07:37;;;;;;;6.75;3.30;;;17.20;99.90;;;;;;5047997;28;20029;-69
2023/06/14 07:10:04;;;;;;;11.02;3.53;;;17.30;99.80;;;;;;5046172;28;20107;-68
2023/06/14 07:12:35;;;;;;;7.07;3.40;;;17.30;99.30;;;;;;5057473;28;20240;-68
2023/06/14 07:15:01;;;;;;;11.15;3.47;;;17.30;99.60;;;;;;5055615;28;20074;-69
2023/06/14 07:17:27;;;;;;;10.52;3.38;;;17.50;99.80;;;;;;5044135;28;20044;-68
2023/06/14 07:19:53;;;;;;;6.28;3.13;;;17.70;99.60;;;;;;5038615;28;20034;-68
2023/06/14 07:22:19;;;;;;;7.53;3.10;;;18.00;99.20;;;;;;5039563;28;20129;-69
2023/06/14 07:24:45;;;;;;;7.65;3.47;;;18.20;99.10;;;;;;5039873;28;20109;-68
2023/06/14 07:27:13;;;;;;;9.93;3.55;;;18.40;97.80;;;;;;5032633;28;20120;-68
2023/06/14 07:29:38;;;;;;;8.20;3.45;;;18.90;98.50;;;;;;5032621;28;20421;-68
2023/06/14 07:32:05;;;;;;;7.25;3.13;;;20.30;95.20;;;;;;5042149;28;20033;-71
2023/06/14 07:34:30;;;;;;;9.77;3.28;;;23.10;91.60;;;;;;5052051;28;20032;-70
2023/06/14 07:36:56;;;;;;;5.05;2.58;;;26.00;80.90;;;;;;5050141;28;20472;-72
2023/06/14 07:39:22;;;;;;;10.43;3.10;;;28.40;70.40;;;;;;5045141;28;20040;-79
2023/06/14 07:41:47;;;;;;;5.78;2.45;;;30.70;62.30;;;;;;5053527;28;20126;-66
2023/06/14 07:44:13;;;;;;;8.00;2.90;;;32.40;54.80;;;;;;5056488;28;20570;-68
2023/06/14 07:46:39;;;;;;;8.10;3.15;;;33.30;49.20;;;;;;5057000;28;20029;-67
2023/06/14 07:49:05;;;;;;;7.25;2.50;;;34.40;45.90;;;;;;5039306;28;20033;-69
2023/06/14 07:51:30;;;;;;;6.85;3.08;;;35.00;44.20;;;;;;5025543;28;20166;-68
2023/06/14 07:53:56;;;;;;;9.68;3.33;;;35.30;41.90;;;;;;5051743;28;20071;-69
2023/06/14 07:56:23;;;;;;;7.95;2.50;;;36.00;42.00;;;;;;5054452;28;20251;-68
2023/06/14 07:58:48;;;;;;;5.60;2.58;;;36.70;40.60;;;;;;5051720;28;20540;-67
2023/06/14 08:01:15;;;;;;;5.78;2.55;;;36.20;40.10;;;;;;5044236;28;20119;-69
2023/06/14 08:03:40;;;;;;;5.40;2.78;;;36.70;39.60;;;;;;5053167;28;20028;-69
2023/06/14 08:06:07;;;;;;;4.72;2.63;;;37.50;37.90;;;;;;5042809;28;20043;-68
2023/06/14 08:08:32;;;;;;;9.27;2.78;;;38.20;37.20;;;;;;5049588;28;20534;-68
2023/06/14 08:10:58;;;;;;;7.70;2.35;;;38.70;36.40;;;;;;5042449;28;20104;-68
2023/06/14 08:13:24;;;;;;;8.90;2.45;;;39.10;35.70;;;;;;5052454;28;20025;-68
2023/06/14 08:15:50;;;;;;;7.18;2.55;;;38.80;35.50;;;;;;5052577;28;20483;-68
2023/06/14 08:18:15;;;;;;;6.53;2.40;;;39.50;35.90;;;;;;5057459;28;20029;-68
2023/06/14 08:20:41;;;;;;;6.28;2.70;;;39.90;35.40;;;;;;5055869;28;20480;-69
2023/06/14 08:23:08;;;;;;;5.80;2.50;;;39.50;33.50;;;;;;5053260;28;20120;-69
2023/06/14 08:25:34;;;;;;;5.60;2.00;;;39.70;33.70;;;;;;5048270;28;20608;-68
2023/06/14 08:28:00;;;;;;;5.50;2.60;;;40.20;33.10;;;;;;5054089;28;20057;-68
2023/06/14 08:30:26;;;;;;;6.75;2.80;;;39.20;34.40;;;;;;5052167;28;20711;-68
2023/06/14 08:32:51;;;;;;;7.20;2.92;;;39.40;33.90;;;;;;5053979;28;20613;-68
2023/06/14 08:35:18;;;;;;;5.55;2.60;;;39.10;32.70;;;;;;5057276;28;20140;-69
2023/06/14 08:37:45;;;;;;;7.07;2.45;;;39.70;33.70;;;;;;5052306;28;20642;-68
2023/06/14 08:40:21;;;;;;;6.85;2.85;;;40.60;32.80;;;;;;5055413;28;20034;-68
2023/06/14 08:42:55;;;;;;;7.13;2.88;;;39.50;33.60;;;;;;5057623;28;20484;-68
2023/06/14 08:45:23;;;;;;;9.20;3.42;;;40.00;34.30;;;;;;5053180;28;20070;-68
2023/06/14 08:47:57;;;;;;;7.38;2.83;;;40.10;33.00;;;;;;5055465;28;20029;-68
2023/06/14 08:50:26;;;;;;;6.30;2.30;;;41.00;31.50;;;;;;5050072;28;20074;-68
2023/06/14 08:52:57;;;;;;;5.38;2.30;;;41.30;32.50;;;;;;5047313;28;20024;-68
2023/06/14 08:55:26;;;;;;;4.65;2.45;;;42.30;32.10;;;;;;5043926;28;20883;-68
2023/06/14 08:57:54;;;;;;;5.13;2.42;;;43.20;30.30;;;;;;5049325;28;20184;-68
2023/06/14 09:00:21;;;;;;;9.60;3.28;;;43.30;29.60;;;;;;5046421;28;20036;-68
2023/06/14 09:02:46;;;;;;;6.43;2.60;;;42.20;29.30;;;;;;5047472;28;20106;-68
2023/06/14 09:05:13;;;;;;;5.97;2.65;;;41.40;29.30;;;;;;5045438;28;20487;-68
2023/06/14 09:07:41;;;;;;;4.82;2.90;;;41.20;31.30;;;;;;5055105;28;20090;-68
2023/06/14 09:10:12;;;;;;;5.13;2.20;;;41.30;32.40;;;;;;5058656;28;20130;-67
2023/06/14 09:12:39;;;;;;;5.95;2.75;;;42.20;29.90;;;;;;5066199;28;20020;-68
2023/06/14 09:15:08;;;;;;;4.80;2.28;;;41.90;30.50;;;;;;5054599;28;20119;-68
2023/06/14 09:17:36;;;;;;;5.57;3.00;;;40.80;30.20;;;;;;5045922;28;20025;-69
2023/06/14 09:20:10;;;;;;;5.80;2.60;;;41.80;29.30;;;;;;5046112;28;20058;-68
2023/06/14 09:22:37;;;;;;;7.30;2.55;;;42.20;30.20;;;;;;5043007;28;20215;-69
2023/06/14 09:25:03;;;;;;;9.73;3.05;;;41.90;30.30;;;;;;5049332;28;20047;-69
2023/06/14 09:27:29;;;;;;;5.45;2.90;;;41.60;28.80;;;;;;5056205;28;20500;-69
2023/06/14 09:29:55;;;;;;;3.80;2.50;;;40.80;29.80;;;;;;5060130;28;20097;-69
2023/06/14 09:32:25;;;;;;;6.38;2.67;;;42.00;31.40;;;;;;5058862;28;20452;-69
2023/06/14 09:34:51;;;;;;;9.50;2.72;;;42.20;31.20;;;;;;5040857;28;20051;-68
2023/06/14 09:37:31;;;;;;;6.45;2.63;;;43.10;29.30;;;;;;5045031;28;20045;-69
2023/06/14 09:39:57;;;;;;;;;;;43.90;29.50;;;;;;5051857;28;20104;-69
2023/06/14 09:42:25;;;;;;;5.60;2.80;;;44.50;27.90;;;;;;5046302;28;19983;-69
2023/06/14 09:44:52;;;;;;;5.88;2.65;;;44.50;28.40;;;;;;5025605;28;20094;-69
2023/06/14 09:47:18;;;;;;;4.78;2.38;;;45.00;28.80;;;;;;5050968;28;20566;-69
2023/06/14 09:49:44;;;;;;;11.20;2.47;;;45.60;28.80;;;;;;5021917;28;20068;-69
2023/06/14 09:52:20;;;;;;;5.22;2.33;;;46.20;28.30;;;;;;5047170;28;20257;-69
2023/06/14 09:54:48;;;;;;;6.63;2.53;;;46.30;28.70;;;;;;5042513;28;20037;-68
2023/06/14 09:57:22;;;;;;;5.20;2.70;;;45.60;26.20;;;;;;5045765;28;20321;-69
2023/06/14 09:59:52;;;;;;;6.65;2.63;;;45.30;26.70;;;;;;5047038;28;20119;-69
2023/06/14 10:02:31;;;;;;;5.25;2.60;;;45.60;28.10;;;;;;5045900;28;20082;-69
2023/06/14 10:05:03;;;;;;;8.18;2.58;;;45.90;28.80;;;;;;5053813;28;20033;-69
2023/06/14 10:07:38;;;;;;;4.68;2.15;;;46.10;28.00;;;;;;5049244;28;20055;-69
2023/06/14 10:10:04;;;;;;;6.78;2.75;;;46.30;27.60;;;;;;5046138;28;20031;-68
2023/06/14 10:12:31;;;;;;;6.50;2.50;;;46.40;27.20;;;;;;5044711;28;20048;-69
2023/06/14 10:14:57;;;;;;;6.15;3.05;;;45.60;27.70;;;;;;5039572;28;21602;-68
2023/06/14 10:17:38;;;;;;;7.72;2.72;;;44.80;27.90;;;;;;5039195;28;20036;-69
2023/06/14 10:20:21;;;;;;;3.78;2.65;;;45.60;28.40;;;;;;5042166;28;20029;-69
2023/06/14 10:22:58;;;;;;;4.72;2.60;;;45.60;28.00;;;;;;5044359;28;20036;-69
2023/06/14 10:25:28;;;;;;;5.05;2.33;;;46.20;28.60;;;;;;5037045;28;20512;-68
2023/06/14 10:28:24;;;;;;;4.28;2.60;;;46.60;26.40;;;;;;5034059;28;20072;-70
2023/06/14 10:31:06;;;;;;;9.23;2.88;;;46.30;26.60;;;;;;5036467;28;20079;-69
2023/06/14 10:33:38;;;;;;;4.93;2.28;;;46.60;26.30;;;;;;5050645;28;20029;-69
2023/06/14 10:36:28;;;;;;;5.60;2.83;;;46.80;27.40;;;;;;5037106;28;20036;-69
2023/06/14 10:39:20;;;;;;;3.50;2.53;;;47.10;26.90;;;;;;5036917;28;20039;-69
2023/06/14 10:41:53;;;;;;;4.45;2.78;;;46.80;26.40;;;;;;5037298;28;20547;-70
2023/06/14 10:44:22;;;;;;;5.95;2.80;;;46.40;26.40;;;;;;5034257;28;20036;-69
2023/06/14 10:47:09;;;;;;;4.30;2.63;;;46.50;25.10;;;;;;4695044;28;10000046;-68
2023/06/14 10:49:41;;;;;;;6.32;2.83;;;47.10;27.00;;;;;;5037580;28;20444;-70
2023/06/14 10:52:16;;;;;;;5.30;2.97;;;46.30;25.50;;;;;;5036875;28;20598;-69
2023/06/14 10:55:17;;;;;;;3.80;2.22;;;46.30;24.90;;;;;;5042429;28;20557;-70
2023/06/14 10:57:51;;;;;;;6.57;2.65;;;46.30;26.00;;;;;;5038646;28;20095;-69
2023/06/14 11:00:38;;;;;;;5.65;3.10;;;46.20;24.90;;;;;;5050692;28;20044;-69
2023/06/14 11:03:42;;;;;;;5.35;2.97;;;45.40;24.70;;;;;;5044862;28;20029;-69
2023/06/14 11:06:23;;;;;;;3.83;2.75;;;45.60;25.90;;;;;;5048075;28;20455;-69
2023/06/14 11:09:14;;;;;;;4.95;3.42;;;46.40;26.70;;;;;;5048307;28;20029;-69
2023/06/14 11:11:42;;;;;;;4.25;2.50;;;46.40;25.00;;;;;;5019605;28;20045;-69
2023/06/14 11:14:08;;;;;;;4.43;2.88;;;46.80;26.10;;;;;;5051013;28;20028;-70
2023/06/14 11:16:34;;;;;;;4.35;2.50;;;45.00;24.60;;;;;;5038280;28;20033;-69
2023/06/14 11:19:03;;;;;;;4.50;2.70;;;44.10;26.80;;;;;;5032621;28;20025;-70
2023/06/14 11:21:31;;;;;;;4.72;3.10;;;44.70;26.10;;;;;;5043347;28;20040;-69
2023/06/14 11:23:57;;;;;;;4.72;2.70;;;44.70;24.90;;;;;;5054565;28;20368;-70
2023/06/14 11:26:31;;;;;;;3.72;2.95;;;44.10;25.60;;;;;;5049835;28;20094;-70
2023/06/14 11:28:58;;;;;;;7.72;3.35;;;42.40;26.20;;;;;;5049140;28;20458;-69
2023/06/14 11:31:25;;;;;;;5.50;3.20;;;41.10;28.00;;;;;;5052396;28;20065;-69
2023/06/14 11:33:51;;;;;;;6.63;3.20;;;38.80;27.90;;;;;;5048519;28;20112;-69
2023/06/14 11:36:16;;;;;;;4.88;3.50;;;36.70;28.20;;;;;;5037942;28;20111;-69
2023/06/14 11:38:42;;;;;;;6.47;3.53;;;34.90;27.70;;;;;;5049027;28;20484;-69
2023/06/14 11:41:08;;;;;;;5.22;3.00;;;34.90;31.20;;;;;;5046089;28;20033;-69
2023/06/14 11:43:35;;;;;;;6.47;3.67;;;35.00;30.70;;;;;;5033421;28;20106;-70
2023/06/14 11:46:01;;;;;;;6.25;3.40;;;34.80;30.60;;;;;;5045535;28;20550;-69
2023/06/14 11:48:43;;;;;;;7.18;3.60;;;34.70;35.20;;;;;;5044202;28;20029;-69
2023/06/14 11:51:09;;;;;;;5.47;3.63;;;34.90;32.40;;;;;;5038625;28;20098;-69
2023/06/14 11:53:35;;;;;;;4.93;4.07;;;35.00;32.80;;;;;;5044659;28;20135;-69
2023/06/14 11:56:02;;;;;;;5.20;3.67;;;34.40;31.60;;;;;;5040877;28;20521;-69
2023/06/14 11:58:29;;;;;;;7.00;3.63;;;34.30;31.80;;;;;;5040358;28;20028;-69
2023/06/14 12:00:55;;;;;;;6.85;4.60;;;34.60;37.60;;;;;;5040979;28;20036;-69
2023/06/14 12:03:25;;;;;;;6.93;4.10;;;34.70;33.20;;;;;;5020932;28;20037;-69
2023/06/14 12:06:07;;;;;;;5.68;3.42;;;35.10;35.10;;;;;;5051124;28;20028;-68
2023/06/14 12:08:40;;;;;;;10.55;3.70;;;35.30;35.70;;;;;;5046534;28;20031;-70
2023/06/14 12:11:08;;;;;;;5.30;4.10;;;34.80;33.50;;;;;;5051311;28;20054;-70
2023/06/14 12:13:35;;;;;;;5.32;3.72;;;34.70;37.70;;;;;;5032262;28;20024;-70
2023/06/14 12:16:01;;;;;;;5.38;3.80;;;33.70;34.90;;;;;;5042839;28;20024;-70
2023/06/14 12:18:38;;;;;;;6.20;3.70;;;32.50;33.50;;;;;;5047664;28;20293;-70
2023/06/14 12:21:08;;;;;;;5.35;4.22;;;31.70;35.80;;;;;;5051030;28;20499;-70
2023/06/14 12:23:49;;;;;;;6.47;3.80;;;31.10;35.70;;;;;;5046109;28;20070;-70
2023/06/14 12:26:19;;;;;;;6.30;3.90;;;31.40;35.00;;;;;;5042508;28;20074;-70
2023/06/14 12:28:46;;;;;;;8.07;3.70;;;31.80;37.40;;;;;;5047103;28;20041;-69
2023/06/14 12:31:14;;;;;;;7.80;3.97;;;32.40;40.50;;;;;;5025275;28;20043;-69
2023/06/14 12:33:40;;;;;;;8.10;3.95;;;32.00;35.60;;;;;;5046455;28;20131;-70
2023/06/14 12:36:10;;;;;;;7.55;3.95;;;31.70;35.40;;;;;;5047505;28;20067;-70
2023/06/14 12:38:36;;;;;;;7.88;3.90;;;31.70;37.70;;;;;;5043685;28;20020;-68
2023/06/14 12:41:02;;;;;;;6.97;3.90;;;31.80;35.30;;;;;;5040950;28;20070;-69
2023/06/14 12:43:28;;;;;;;5.80;4.00;;;32.20;39.10;;;;;;5041139;28;20123;-69
2023/06/14 12:45:54;;;;;;;8.23;3.95;;;32.60;37.10;;;;;;5050006;28;20020;-69
2023/06/14 12:48:20;;;;;;;6.13;4.22;;;33.30;35.30;;;;;;5029034;28;20107;-69
2023/06/14 12:50:47;;;;;;;7.93;4.03;;;33.40;31.00;;;;;;5046922;28;20036;-69